createdAt,value
2024-01-20T06:12:27.895Z,101722.38
2024-01-20T06:17:30.657Z,101717.53
2024-01-20T06:22:33.529Z,101720.97
2024-01-20T06:27:36.555Z,101725.84
2024-01-20T06:32:40.144Z,101726.91
2024-01-20T06:37:42.744Z,101740.22
2024-01-20T06:42:45.402Z,101747.09
2024-01-20T06:47:48.092Z,101751.63
2024-01-20T06:52:50.688Z,101752.50
2024-01-20T06:57:53.308Z,101754.66
2024-01-20T07:02:56.076Z,101771.75
2024-01-20T07:07:58.718Z,101774.09
2024-01-20T07:13:01.497Z,101769.63
2024-01-20T07:18:05.602Z,101772.13
2024-01-20T07:23:08.472Z,101774.81
2024-01-20T07:28:11.112Z,101769.06
2024-01-20T07:33:13.814Z,101772.09
2024-01-20T07:38:16.999Z,101773.00
2024-01-20T07:43:19.584Z,101764.91
2024-01-20T07:48:22.762Z,101782.34
2024-01-20T07:53:25.440Z,101794.25
2024-01-20T07:58:28.007Z,101804.53
2024-01-20T08:03:30.611Z,101797.50
2024-01-20T08:08:33.245Z,101804.88
2024-01-20T08:13:35.854Z,101798.56
2024-01-20T08:18:38.652Z,101817.81
2024-01-20T08:23:41.306Z,101827.56
2024-01-20T08:28:44.006Z,101822.69
2024-01-20T08:33:46.751Z,101840.88
2024-01-20T08:38:49.440Z,101832.75
2024-01-20T08:43:52.455Z,101854.38
2024-01-20T08:48:55.071Z,101859.63
2024-01-20T08:53:57.761Z,101856.91
2024-01-20T08:59:00.369Z,101848.03
2024-01-20T09:04:03.024Z,101848.19
2024-01-20T09:09:05.698Z,101844.75
2024-01-20T09:14:08.329Z,101861.72
2024-01-20T09:19:11.121Z,101860.25
2024-01-20T09:24:13.915Z,101870.50
2024-01-20T09:29:16.570Z,101864.75
2024-01-20T09:34:19.504Z,101874.97
2024-01-20T09:39:22.610Z,101887.94
2024-01-20T09:44:25.785Z,101907.97
2024-01-20T09:49:28.489Z,101920.09
2024-01-20T09:54:32.613Z,101917.38
2024-01-20T09:59:35.655Z,101919.03
2024-01-20T10:04:45.086Z,101911.81
2024-01-20T10:09:47.773Z,101918.31
2024-01-20T10:14:53.917Z,101918.88
2024-01-20T10:19:56.659Z,101915.41
2024-01-20T10:24:59.418Z,101926.59
2024-01-20T10:30:02.098Z,101919.34
2024-01-20T10:35:05.359Z,101942.56
2024-01-20T10:40:10.970Z,101927.69
2024-01-20T10:45:20.153Z,101934.34
2024-01-20T10:50:24.813Z,101937.06
2024-01-20T10:55:27.724Z,101921.66
2024-01-20T11:00:31.296Z,101914.16
2024-01-20T11:05:34.581Z,101918.03
2024-01-20T11:10:46.692Z,101928.91
2024-01-20T11:15:51.515Z,101923.22
2024-01-20T11:21:04.756Z,101903.88
2024-01-20T11:26:12.533Z,101907.41
2024-01-20T11:31:21.709Z,101928.91
2024-01-20T11:36:27.154Z,101927.78
2024-01-20T11:41:29.781Z,101916.66
2024-01-20T11:46:32.409Z,101931.19
2024-01-20T11:51:35.104Z,101941.22
2024-01-20T11:56:37.675Z,101951.38
2024-01-20T12:01:40.393Z,101955.72
2024-01-20T12:06:43.125Z,101948.72
2024-01-20T12:11:45.846Z,101938.09
2024-01-20T12:16:48.605Z,101951.06
2024-01-20T12:21:51.567Z,101958.28
2024-01-20T12:26:54.200Z,101962.94
2024-01-20T12:31:58.219Z,101950.13
2024-01-20T12:37:00.973Z,101956.03
2024-01-20T12:42:03.816Z,101962.53
2024-01-20T12:47:06.579Z,101949.44
2024-01-20T12:52:09.209Z,101961.56
2024-01-20T12:57:11.807Z,101951.16
2024-01-20T13:02:15.383Z,101948.84
2024-01-20T13:07:19.853Z,101960.91
2024-01-20T13:12:22.719Z,101969.41
2024-01-20T13:17:26.473Z,101977.78
2024-01-20T13:22:29.750Z,101994.06
2024-01-20T13:27:32.411Z,101987.19
2024-01-20T13:32:35.244Z,101990.94
2024-01-20T13:37:38.062Z,102010.19
2024-01-20T13:42:43.391Z,102004.22
2024-01-20T13:47:46.461Z,102018.19
2024-01-20T13:52:49.060Z,102015.47
2024-01-20T13:57:52.099Z,102025.31
2024-01-20T14:02:55.213Z,102017.81
2024-01-20T14:07:58.065Z,102026.88
2024-01-20T14:13:02.495Z,102030.84
2024-01-20T14:18:10.574Z,102036.03
2024-01-20T14:23:13.601Z,102033.72
2024-01-20T14:28:16.232Z,102047.91
2024-01-20T14:33:19.004Z,102058.06
2024-01-20T14:38:21.866Z,102075.09
2024-01-20T14:43:25.296Z,102085.53
2024-01-20T14:48:28.057Z,102086.28
2024-01-20T14:53:30.738Z,102092.41
2024-01-20T14:58:33.484Z,102082.13
2024-01-20T15:03:36.557Z,102092.41
2024-01-20T15:08:39.189Z,102102.53
2024-01-20T15:13:43.697Z,102101.50
2024-01-20T15:18:47.328Z,102109.09
2024-01-20T15:23:49.987Z,102115.59
2024-01-20T15:28:52.642Z,102129.34
2024-01-20T15:33:57.709Z,102134.75
2024-01-20T15:39:00.548Z,102139.44
2024-01-20T15:44:03.454Z,102138.72
2024-01-20T15:49:06.135Z,102149.38
2024-01-20T15:54:09.784Z,102162.56
2024-01-20T15:59:12.743Z,102172.50
2024-01-20T16:04:16.037Z,102172.31
2024-01-20T16:09:18.797Z,102182.94
2024-01-20T16:14:24.668Z,102181.34
2024-01-20T16:19:30.198Z,102189.66
2024-01-20T16:24:33.002Z,102195.78
2024-01-20T16:29:35.784Z,102197.06
2024-01-20T16:34:39.058Z,102204.44
2024-01-20T16:39:41.883Z,102206.63
2024-01-20T16:44:45.047Z,102213.66
2024-01-20T16:49:47.910Z,102211.50
2024-01-20T16:54:51.190Z,102214.38
2024-01-20T16:59:54.290Z,102214.91
2024-01-20T17:04:56.990Z,102232.47
2024-01-20T17:09:59.817Z,102229.56
2024-01-20T17:15:02.460Z,102233.13
2024-01-20T17:20:05.976Z,102236.56
2024-01-20T17:25:09.543Z,102247.94
2024-01-20T17:30:12.359Z,102253.69
2024-01-20T17:35:16.422Z,102258.75
2024-01-20T17:40:19.207Z,102272.97
2024-01-20T17:45:21.911Z,102277.44
2024-01-20T17:50:25.384Z,102288.09
2024-01-20T17:55:31.452Z,102285.56
2024-01-20T18:00:34.595Z,102295.63
2024-01-20T18:05:37.368Z,102290.22
2024-01-20T18:10:43.034Z,102301.03
2024-01-20T18:15:46.332Z,102301.41
2024-01-20T18:20:49.108Z,102320.38
2024-01-20T18:25:51.731Z,102326.56
2024-01-20T18:30:55.222Z,102340.50
2024-01-20T18:35:58.121Z,102349.03
2024-01-20T18:41:01.131Z,102353.19
2024-01-20T18:46:03.717Z,102355.00
2024-01-20T18:51:07.295Z,102364.19
2024-01-20T18:56:10.020Z,102366.91
2024-01-20T19:01:12.752Z,102373.44
2024-01-20T19:06:15.535Z,102392.22
2024-01-20T19:11:20.267Z,102394.22
2024-01-20T19:16:24.325Z,102398.91
2024-01-20T19:21:26.959Z,102393.47
2024-01-20T19:26:29.654Z,102398.72
2024-01-20T19:31:32.317Z,102398.53
2024-01-20T19:36:34.925Z,102420.38
2024-01-20T19:41:37.696Z,102428.59
2024-01-20T19:46:42.820Z,102430.84
2024-01-20T19:51:45.522Z,102438.84
2024-01-20T19:56:48.192Z,102428.63
2024-01-20T20:01:50.918Z,102433.38
2024-01-20T20:06:53.879Z,102435.66
2024-01-20T20:11:56.527Z,102438.06
2024-01-20T20:16:59.284Z,102435.47
2024-01-20T20:22:02.766Z,102442.97
2024-01-20T20:27:05.728Z,102445.22
2024-01-20T20:32:08.319Z,102443.97
2024-01-20T20:37:10.956Z,102448.66
2024-01-20T20:42:13.658Z,102443.84
2024-01-20T20:47:16.307Z,102434.38
2024-01-20T20:52:18.939Z,102448.50
2024-01-20T20:57:21.639Z,102439.56
2024-01-20T21:02:24.358Z,102444.06
2024-01-20T21:07:29.228Z,102445.50
2024-01-20T21:12:32.298Z,102449.16
2024-01-20T21:17:35.077Z,102451.34
2024-01-20T21:22:38.062Z,102458.59
2024-01-20T21:27:40.763Z,102451.00
2024-01-20T21:32:43.991Z,102445.16
2024-01-20T21:37:46.590Z,102451.59
2024-01-20T21:42:49.265Z,102458.09
2024-01-20T21:47:51.953Z,102450.38
2024-01-20T21:52:54.784Z,102450.16
2024-01-20T21:57:59.293Z,102448.94
2024-01-20T22:03:02.775Z,102449.50
2024-01-20T22:08:05.659Z,102450.50
2024-01-20T22:13:08.360Z,102445.66
2024-01-20T22:18:11.146Z,102449.88
2024-01-20T22:23:14.184Z,102438.34
2024-01-20T22:28:16.751Z,102441.81
2024-01-20T22:33:19.435Z,102445.63
2024-01-20T22:38:22.112Z,102446.53
2024-01-20T22:43:24.778Z,102439.13
2024-01-20T22:48:33.281Z,102453.88
2024-01-20T22:53:38.063Z,102458.09
2024-01-20T22:58:41.026Z,102457.59
2024-01-20T23:03:44.344Z,102457.75
2024-01-20T23:08:52.101Z,102463.13
2024-01-20T23:13:54.713Z,102453.81
2024-01-20T23:18:57.873Z,102460.06
2024-01-20T23:24:00.616Z,102459.84
2024-01-20T23:29:04.233Z,102446.16
2024-01-20T23:34:07.094Z,102447.94
2024-01-20T23:39:10.013Z,102440.91
2024-01-20T23:44:15.027Z,102437.44
2024-01-20T23:49:18.569Z,102431.50
2024-01-20T23:54:21.305Z,102430.66
2024-01-20T23:59:24.075Z,102420.19
